Time;durP1;ratioP1;P1;durP2;ratioP2;P2;SDS_P1;SDS_P2;PMS_P1;PMS_P2;Temp;Humidity;BMP_temperature;BMP_pressure;BME280_temperature;BME280_humidity;BME280_pressure;Samples;Min_cycle;Max_cycle;Signal;HPM_P1;HPM_P2
2023/02/20 00:00:09;;;;;;;8.27;5.20;;;6.20;1.00;;;;;;5048023;28;20195;-59
2023/02/20 00:02:35;;;;;;;5.60;5.00;;;6.10;1.00;;;;;;5049098;28;20475;-59
2023/02/20 00:05:00;;;;;;;7.30;4.80;;;6.00;1.00;;;;;;5055628;28;20414;-58
2023/02/20 00:07:26;;;;;;;10.03;6.33;;;6.10;1.00;;;;;;5054141;28;20591;-58
2023/02/20 00:09:52;;;;;;;8.20;4.50;;;6.10;1.00;;;;;;5048135;28;20274;-57
2023/02/20 00:12:17;;;;;;;4.73;4.20;;;6.10;1.00;;;;;;5057103;28;20532;-58
2023/02/20 00:14:44;;;;;;;9.50;5.77;;;6.20;1.00;;;;;;5050983;28;20191;-58
2023/02/20 00:17:09;;;;;;;6.10;4.40;;;6.10;1.00;;;;;;5061070;28;20227;-59
2023/02/20 00:19:35;;;;;;;7.10;5.63;;;6.10;1.00;;;;;;5057087;28;20440;-56
2023/02/20 00:22:00;;;;;;;5.87;4.00;;;6.10;1.00;;;;;;5057048;28;20261;-57
2023/02/20 00:24:26;;;;;;;7.43;4.73;;;6.10;1.00;;;;;;5060540;28;20629;-58
2023/02/20 00:26:52;;;;;;;5.70;4.97;;;6.10;1.00;;;;;;5054121;28;20194;-58
2023/02/20 00:29:20;;;;;;;5.37;4.57;;;6.10;1.00;;;;;;5050625;28;20540;-57
2023/02/20 00:31:56;;;;;;;7.43;4.83;;;6.10;1.00;;;;;;5057671;28;20445;-57
2023/02/20 00:34:25;;;;;;;10.30;5.60;;;6.20;1.00;;;;;;5049432;28;20524;-57
2023/02/20 00:36:51;;;;;;;6.00;3.87;;;6.30;1.00;;;;;;5057945;28;20469;-58
2023/02/20 00:39:17;;;;;;;7.93;4.80;;;6.20;1.00;;;;;;5054467;28;20630;-58
2023/02/20 00:41:42;;;;;;;6.53;4.60;;;6.30;1.00;;;;;;5048547;28;20451;-57
2023/02/20 00:44:08;;;;;;;9.13;5.70;;;6.40;1.00;;;;;;5053430;28;20177;-58
2023/02/20 00:46:33;;;;;;;6.50;4.67;;;6.40;1.00;;;;;;5052878;28;20191;-59
2023/02/20 00:48:59;;;;;;;6.13;4.33;;;6.50;1.00;;;;;;5060413;28;20197;-58
2023/02/20 00:51:25;;;;;;;5.70;4.40;;;6.50;1.00;;;;;;5049553;28;20653;-56
2023/02/20 00:53:51;;;;;;;6.90;4.70;;;6.50;1.00;;;;;;5060593;28;20333;-59
2023/02/20 00:56:17;;;;;;;5.17;4.27;;;6.40;1.00;;;;;;5058968;28;20256;-57
2023/02/20 00:58:43;;;;;;;7.10;4.77;;;6.40;1.00;;;;;;5057414;28;20284;-58
2023/02/20 01:01:09;;;;;;;6.83;4.57;;;6.50;1.00;;;;;;5055659;28;20975;-59
2023/02/20 01:03:34;;;;;;;6.97;4.43;;;6.50;1.00;;;;;;5057979;28;20194;-58
2023/02/20 01:06:00;;;;;;;5.83;4.43;;;6.60;1.00;;;;;;5057691;28;20427;-57
2023/02/20 01:08:26;;;;;;;4.77;4.20;;;6.50;1.00;;;;;;5058155;28;20247;-59
2023/02/20 01:10:51;;;;;;;4.90;4.30;;;6.60;1.00;;;;;;5059760;28;20184;-57
2023/02/20 01:13:17;;;;;;;6.17;4.60;;;6.60;1.00;;;;;;5049655;28;20201;-57
2023/02/20 01:15:43;;;;;;;4.70;4.10;;;6.70;1.00;;;;;;5062066;28;20291;-56
2023/02/20 01:18:09;;;;;;;4.43;3.53;;;6.70;1.00;;;;;;5062271;28;20473;-58
2023/02/20 01:20:34;;;;;;;6.97;5.00;;;6.70;1.00;;;;;;5051796;28;20317;-57
2023/02/20 01:23:00;;;;;;;6.63;4.60;;;6.70;1.00;;;;;;5052219;28;20186;-58
2023/02/20 01:25:26;;;;;;;6.43;4.63;;;6.70;1.00;;;;;;5055609;28;20258;-57
2023/02/20 01:27:52;;;;;;;8.00;3.83;;;6.70;1.00;;;;;;5060294;28;20196;-59
2023/02/20 01:30:17;;;;;;;6.47;4.20;;;6.80;1.00;;;;;;5067110;28;20236;-57
2023/02/20 01:32:43;;;;;;;10.13;4.30;;;6.80;1.00;;;;;;5052046;28;20456;-57
2023/02/20 01:35:09;;;;;;;6.73;3.80;;;6.70;1.00;;;;;;5061684;28;20604;-57
2023/02/20 01:37:35;;;;;;;8.20;3.90;;;6.80;1.00;;;;;;5055623;28;20479;-58
2023/02/20 01:40:00;;;;;;;5.50;3.83;;;6.80;1.00;;;;;;5058355;28;20198;-57
2023/02/20 01:42:30;;;;;;;4.60;4.13;;;6.80;1.00;;;;;;5047619;28;20184;-57
2023/02/20 01:45:19;;;;;;;10.33;4.40;;;6.90;1.00;;;;;;5059772;28;20419;-57
2023/02/20 01:47:45;;;;;;;6.60;3.53;;;6.70;1.00;;;;;;5058188;28;20438;-57
2023/02/20 01:50:12;;;;;;;5.27;4.37;;;6.80;1.00;;;;;;5045349;28;21013;-58
2023/02/20 01:52:39;;;;;;;6.03;4.43;;;6.80;1.00;;;;;;5061629;28;20241;-57
2023/02/20 01:55:19;;;;;;;5.43;4.70;;;6.90;1.00;;;;;;5060399;28;20469;-57
2023/02/20 01:57:59;;;;;;;6.10;3.90;;;6.80;1.00;;;;;;5052807;28;20449;-56
2023/02/20 02:00:25;;;;;;;7.40;4.07;;;6.90;1.00;;;;;;5051980;28;20456;-57
2023/02/20 02:02:58;;;;;;;6.20;4.27;;;6.90;1.00;;;;;;5054556;28;20456;-58
2023/02/20 02:05:26;;;;;;;5.17;3.70;;;6.90;1.00;;;;;;5054385;28;20420;-58
2023/02/20 02:07:52;;;;;;;5.83;5.23;;;7.00;1.00;;;;;;5052077;28;20459;-58
2023/02/20 02:10:25;;;;;;;6.30;5.13;;;7.00;1.00;;;;;;5052470;28;20450;-59
2023/02/20 02:12:53;;;;;;;8.17;3.63;;;6.90;1.00;;;;;;5057602;28;20228;-58
2023/02/20 02:15:21;;;;;;;5.13;4.27;;;6.80;1.00;;;;;;5055538;28;20515;-57
2023/02/20 02:18:01;;;;;;;4.90;3.93;;;6.80;1.00;;;;;;5051821;28;20821;-58
2023/02/20 02:20:48;;;;;;;9.53;3.90;;;6.80;1.00;;;;;;5058474;28;20445;-58
2023/02/20 02:23:38;;;;;;;4.33;3.93;;;6.70;1.00;;;;;;5053148;28;20420;-57
2023/02/20 02:26:25;;;;;;;6.17;4.43;;;6.60;1.00;;;;;;5056595;28;20454;-57
2023/02/20 02:29:33;;;;;;;5.23;4.17;;;6.60;1.00;;;;;;5063882;28;20452;-59
2023/02/20 02:32:23;;;;;;;4.87;4.37;;;6.60;1.00;;;;;;5053613;28;20449;-57
2023/02/20 02:35:15;;;;;;;5.87;4.50;;;6.60;1.00;;;;;;5056839;28;20426;-57
2023/02/20 02:37:40;;;;;;;4.67;4.10;;;6.60;1.00;;;;;;5046135;28;20503;-58
2023/02/20 02:40:25;;;;;;;5.53;4.40;;;6.60;1.00;;;;;;5050117;28;20931;-58
2023/02/20 02:43:20;;;;;;;5.20;3.80;;;6.70;1.00;;;;;;5051849;28;20201;-57
2023/02/20 02:45:58;;;;;;;5.47;3.63;;;6.70;1.00;;;;;;5060592;28;20809;-59
2023/02/20 02:48:39;;;;;;;6.00;4.80;;;6.70;1.00;;;;;;5055823;28;20862;-57
2023/02/20 02:51:13;;;;;;;5.10;3.90;;;6.80;1.00;;;;;;5058736;28;20440;-58
2023/02/20 02:53:39;;;;;;;6.20;4.20;;;6.80;1.00;;;;;;5048431;28;20446;-57
2023/02/20 02:56:20;;;;;;;5.47;4.10;;;6.90;1.00;;;;;;5051573;28;21003;-58
2023/02/20 02:58:53;;;;;;;4.77;4.07;;;7.00;1.00;;;;;;5053001;28;20202;-58
2023/02/20 03:01:20;;;;;;;5.20;3.70;;;7.10;1.00;;;;;;5057800;28;20546;-58
2023/02/20 03:03:48;;;;;;;5.47;4.20;;;7.10;1.00;;;;;;5052311;28;20436;-58
2023/02/20 03:06:24;;;;;;;6.20;3.90;;;7.20;1.00;;;;;;5055005;28;20576;-58
2023/02/20 03:08:57;;;;;;;6.63;4.50;;;7.20;1.00;;;;;;5051528;28;20992;-56
2023/02/20 03:11:26;;;;;;;6.43;4.37;;;7.10;1.00;;;;;;5052672;28;20441;-57
2023/02/20 03:17:06;;;;;;;5.70;4.70;;;7.50;1.00;;;;;;5048305;28;20762;-56
2023/02/20 03:19:38;;;;;;;5.73;5.13;;;7.60;1.00;;;;;;5069581;28;20441;-59
2023/02/20 03:22:27;;;;;;;5.80;5.20;;;7.80;1.00;;;;;;5059741;28;20476;-57
2023/02/20 03:24:58;;;;;;;5.53;4.30;;;8.00;1.00;;;;;;5057198;28;20476;-57
2023/02/20 03:27:37;;;;;;;6.07;5.27;;;7.90;1.00;;;;;;5057916;28;20448;-56
2023/02/20 03:30:06;;;;;;;6.93;5.03;;;8.00;1.00;;;;;;5051706;28;20568;-58
2023/02/20 03:43:38;;;;;;;6.60;5.13;;;8.30;1.00;;;;;;5050702;28;20834;-56
2023/02/20 03:46:14;;;;;;;5.03;4.53;;;8.40;1.00;;;;;;5048821;28;20964;-56
2023/02/20 03:48:59;;;;;;;5.87;5.00;;;8.30;1.00;;;;;;5036899;28;20445;-58
2023/02/20 03:51:25;;;;;;;6.53;4.60;;;8.30;1.00;;;;;;5051252;28;20521;-57
2023/02/20 03:53:52;;;;;;;5.50;4.63;;;8.30;1.00;;;;;;5050630;28;20515;-57
2023/02/20 03:56:25;;;;;;;5.73;5.13;;;8.40;1.00;;;;;;5056320;28;20830;-58
2023/02/20 03:59:00;;;;;;;7.63;5.00;;;8.40;1.00;;;;;;5054215;28;20420;-56
2023/02/20 04:01:28;;;;;;;4.60;3.90;;;8.40;1.00;;;;;;5051730;28;20411;-58
2023/02/20 04:03:56;;;;;;;5.50;4.60;;;8.40;1.00;;;;;;5056325;28;20441;-57
2023/02/20 04:06:27;;;;;;;4.60;4.10;;;8.40;1.00;;;;;;5050407;28;20540;-56
2023/02/20 04:09:03;;;;;;;8.43;5.43;;;8.40;1.00;;;;;;5055713;28;20462;-60
2023/02/20 04:11:44;;;;;;;5.20;4.07;;;8.30;1.00;;;;;;5058994;28;20441;-57
2023/02/20 04:14:13;;;;;;;4.40;4.00;;;8.40;1.00;;;;;;5050622;28;20448;-58
2023/02/20 04:16:46;;;;;;;5.10;4.57;;;8.50;1.00;;;;;;5055174;28;20477;-56
2023/02/20 04:19:11;;;;;;;5.77;4.77;;;8.50;1.00;;;;;;5057629;28;20432;-57
2023/02/20 04:21:57;;;;;;;4.90;4.03;;;8.50;1.00;;;;;;5060669;28;20445;-58
2023/02/20 04:24:45;;;;;;;5.40;4.70;;;8.50;1.00;;;;;;5053937;28;20195;-58
2023/02/20 04:27:12;;;;;;;6.60;4.40;;;8.40;1.00;;;;;;5054230;28;20442;-58
2023/02/20 04:29:38;;;;;;;6.17;4.57;;;8.40;1.00;;;;;;5042382;28;20436;-56
2023/02/20 04:32:04;;;;;;;5.83;4.40;;;8.30;1.00;;;;;;5045787;28;20443;-58
2023/02/20 04:34:29;;;;;;;6.47;3.90;;;8.20;1.00;;;;;;5059632;28;20198;-57
2023/02/20 04:37:08;;;;;;;7.63;4.43;;;8.30;1.00;;;;;;5051196;28;20215;-57
2023/02/20 04:39:34;;;;;;;10.73;5.10;;;8.40;1.00;;;;;;5054662;28;20649;-57
2023/02/20 04:42:00;;;;;;;7.23;4.17;;;8.40;1.00;;;;;;5047271;28;20463;-57
2023/02/20 04:44:33;;;;;;;6.50;4.77;;;8.30;1.00;;;;;;5055368;28;20986;-57
2023/02/20 04:47:04;;;;;;;6.67;4.70;;;8.30;1.00;;;;;;5059864;28;20432;-58
2023/02/20 04:49:30;;;;;;;6.70;5.13;;;8.30;1.00;;;;;;5047270;28;20432;-59
2023/02/20 04:51:56;;;;;;;6.83;5.13;;;8.30;1.00;;;;;;5047250;28;20452;-58
2023/02/20 04:54:22;;;;;;;5.33;4.80;;;8.30;1.00;;;;;;5061659;28;20214;-56
2023/02/20 04:56:48;;;;;;;7.63;5.90;;;8.40;1.00;;;;;;5059969;28;20199;-57
2023/02/20 04:59:13;;;;;;;6.23;5.43;;;8.40;1.00;;;;;;5054750;28;20453;-57
2023/02/20 05:01:40;;;;;;;6.43;4.90;;;8.40;1.00;;;;;;5049666;28;20432;-57
2023/02/20 05:04:06;;;;;;;6.20;5.20;;;8.50;1.00;;;;;;5059193;28;20790;-57
2023/02/20 05:06:31;;;;;;;7.80;6.10;;;8.40;1.00;;;;;;5054911;28;20543;-59
2023/02/20 05:08:57;;;;;;;6.70;5.70;;;8.50;1.00;;;;;;5063289;28;20263;-57
2023/02/20 05:11:23;;;;;;;12.67;6.87;;;8.50;1.00;;;;;;5049508;28;20199;-57
2023/02/20 05:13:49;;;;;;;8.50;6.37;;;8.50;1.00;;;;;;5057943;28;20450;-56
2023/02/20 05:16:15;;;;;;;7.60;6.53;;;8.40;1.00;;;;;;5057730;28;20281;-57
2023/02/20 05:18:40;;;;;;;8.80;6.33;;;8.40;1.00;;;;;;5050248;28;20676;-58
2023/02/20 05:23:50;;;;;;;8.70;6.27;;;8.40;1.00;;;;;;5062901;28;20598;-57
2023/02/20 05:26:19;;;;;;;9.87;7.43;;;8.50;1.00;;;;;;5055445;28;20423;-56
2023/02/20 05:28:45;;;;;;;8.57;6.83;;;8.60;1.00;;;;;;5059376;28;20186;-57
2023/02/20 05:31:11;;;;;;;9.63;6.70;;;8.60;1.00;;;;;;5054384;28;20802;-56
2023/02/20 05:33:36;;;;;;;10.47;7.07;;;8.60;1.00;;;;;;5060504;28;20195;-56
2023/02/20 05:36:03;;;;;;;10.00;7.27;;;8.60;1.00;;;;;;5057802;28;21309;-57
2023/02/20 05:38:28;;;;;;;8.20;6.20;;;8.50;1.00;;;;;;5060548;28;20193;-56
2023/02/20 05:40:54;;;;;;;11.70;6.00;;;8.50;1.00;;;;;;5048184;28;20776;-55
2023/02/20 05:43:19;;;;;;;6.93;5.67;;;8.60;1.00;;;;;;5053662;28;20185;-56
2023/02/20 05:45:46;;;;;;;8.23;5.47;;;8.60;1.00;;;;;;5058985;28;20650;-57
2023/02/20 05:48:12;;;;;;;7.60;5.53;;;8.60;1.00;;;;;;5053989;28;20222;-58
2023/02/20 05:50:37;;;;;;;9.07;6.60;;;8.60;1.00;;;;;;5063045;28;20456;-56
2023/02/20 05:53:03;;;;;;;11.97;6.83;;;8.60;1.00;;;;;;5059167;28;20446;-57
2023/02/20 05:55:29;;;;;;;8.83;6.10;;;8.60;1.00;;;;;;5051283;28;20806;-57
2023/02/20 05:57:56;;;;;;;10.67;6.83;;;8.60;1.00;;;;;;5047368;28;20180;-59
2023/02/20 06:00:21;;;;;;;8.87;6.23;;;8.70;1.00;;;;;;5047676;28;20436;-58
2023/02/20 06:02:47;;;;;;;9.77;7.30;;;8.70;1.00;;;;;;5050764;28;20464;-57
2023/02/20 06:05:13;;;;;;;8.10;5.47;;;8.60;1.00;;;;;;5049279;28;20487;-57
2023/02/20 06:07:41;;;;;;;11.87;7.10;;;8.60;1.00;;;;;;5051081;28;20187;-57
2023/02/20 06:10:07;;;;;;;6.97;5.50;;;8.60;1.00;;;;;;5051028;28;20588;-58
2023/02/20 06:12:33;;;;;;;9.30;6.30;;;8.70;1.00;;;;;;5048930;28;20423;-57
2023/02/20 06:14:58;;;;;;;12.10;7.27;;;8.60;1.00;;;;;;5045222;28;20188;-57
2023/02/20 06:17:24;;;;;;;9.13;6.63;;;8.60;1.00;;;;;;5056455;28;20220;-57
2023/02/20 06:19:49;;;;;;;9.10;6.73;;;8.60;1.00;;;;;;5048732;28;20661;-57
2023/02/20 06:22:16;;;;;;;8.90;5.80;;;8.70;1.00;;;;;;5050555;28;20262;-57
2023/02/20 06:24:46;;;;;;;9.07;6.37;;;8.80;1.00;;;;;;5051792;28;20217;-57
2023/02/20 06:27:12;;;;;;;13.33;6.70;;;8.60;1.00;;;;;;5046497;28;20450;-57
2023/02/20 06:29:38;;;;;;;8.67;6.40;;;8.70;1.00;;;;;;5052594;28;20943;-58
2023/02/20 06:32:03;;;;;;;7.80;5.50;;;8.70;1.00;;;;;;5052067;28;20484;-58
2023/02/20 06:34:32;;;;;;;7.60;4.63;;;8.70;1.00;;;;;;5047129;28;20541;-58
2023/02/20 06:36:59;;;;;;;7.90;5.60;;;8.80;1.00;;;;;;5048906;28;20712;-57
2023/02/20 06:39:24;;;;;;;8.37;5.47;;;8.80;1.00;;;;;;5045628;28;20422;-57
2023/02/20 06:41:50;;;;;;;7.20;5.50;;;8.90;1.00;;;;;;5063507;28;20480;-56
2023/02/20 06:44:15;;;;;;;9.40;5.27;;;8.90;1.00;;;;;;5055184;28;20191;-58
2023/02/20 06:46:41;;;;;;;7.97;5.20;;;8.90;1.00;;;;;;5059605;28;20195;-57
2023/02/20 06:49:07;;;;;;;7.10;5.13;;;9.10;1.00;;;;;;5052371;28;20547;-57
2023/02/20 06:51:33;;;;;;;8.23;5.20;;;9.20;1.00;;;;;;5048653;28;20199;-57
2023/02/20 06:54:00;;;;;;;7.73;5.43;;;9.10;1.00;;;;;;5056353;28;20226;-57
2023/02/20 06:56:28;;;;;;;7.23;5.20;;;9.20;1.00;;;;;;5053875;28;20485;-57
2023/02/20 06:58:55;;;;;;;7.20;5.83;;;9.10;1.00;;;;;;5061810;28;20484;-58
2023/02/20 07:01:25;;;;;;;6.87;5.17;;;9.00;1.00;;;;;;5042736;28;20961;-57
2023/02/20 07:03:53;;;;;;;8.17;4.83;;;9.10;1.00;;;;;;5056751;28;20545;-56
2023/02/20 07:06:18;;;;;;;6.00;4.77;;;9.00;1.00;;;;;;5051895;28;20782;-58
2023/02/20 07:08:44;;;;;;;7.07;5.20;;;9.00;1.00;;;;;;5054105;28;20461;-57
2023/02/20 07:11:11;;;;;;;6.90;4.60;;;9.10;1.00;;;;;;5053558;28;20196;-57
2023/02/20 07:13:37;;;;;;;6.30;4.77;;;9.10;1.00;;;;;;5050683;28;20188;-58
2023/02/20 07:16:02;;;;;;;6.10;4.87;;;9.20;1.00;;;;;;5055132;28;20546;-57
2023/02/20 07:18:28;;;;;;;6.50;4.83;;;9.10;1.00;;;;;;5057027;28;20249;-57
2023/02/20 07:20:54;;;;;;;5.80;4.10;;;9.10;1.00;;;;;;5057065;28;20444;-57
2023/02/20 07:23:20;;;;;;;6.23;4.30;;;9.40;1.00;;;;;;5058532;28;20188;-58
2023/02/20 07:25:48;;;;;;;5.43;4.03;;;9.40;1.00;;;;;;5060666;28;20509;-58
2023/02/20 07:28:14;;;;;;;5.30;4.10;;;9.60;1.00;;;;;;5058236;28;20417;-58
2023/02/20 07:30:40;;;;;;;5.13;4.30;;;9.80;1.00;;;;;;5053990;28;20468;-57
2023/02/20 07:33:06;;;;;;;4.07;3.67;;;9.70;1.00;;;;;;5063190;28;20450;-57
2023/02/20 07:35:31;;;;;;;7.27;5.10;;;9.70;1.00;;;;;;5058573;28;20218;-57
2023/02/20 07:37:57;;;;;;;5.63;4.40;;;9.60;1.00;;;;;;5060975;28;20438;-58
2023/02/20 07:40:23;;;;;;;5.90;4.57;;;9.60;1.00;;;;;;5055477;28;20319;-58
2023/02/20 07:42:48;;;;;;;7.17;4.30;;;9.70;1.00;;;;;;5063313;28;20176;-57
2023/02/20 07:45:14;;;;;;;3.97;3.50;;;9.80;1.00;;;;;;5059201;28;20202;-58
2023/02/20 07:47:39;;;;;;;6.03;3.80;;;9.80;1.00;;;;;;5061427;28;20192;-57
2023/02/20 07:50:05;;;;;;;4.83;3.77;;;9.90;1.00;;;;;;5053541;28;20271;-56
2023/02/20 07:52:31;;;;;;;6.50;5.07;;;9.90;1.00;;;;;;5052825;28;20230;-57
2023/02/20 07:54:56;;;;;;;5.47;3.70;;;10.10;1.00;;;;;;5060264;28;20449;-57
2023/02/20 07:57:22;;;;;;;5.30;3.70;;;10.30;1.00;;;;;;5051999;28;20671;-57
2023/02/20 07:59:48;;;;;;;4.27;3.87;;;10.30;1.00;;;;;;5062336;28;20242;-58
2023/02/20 08:02:13;;;;;;;4.73;3.83;;;10.30;1.00;;;;;;5052438;28;20189;-56
2023/02/20 08:04:39;;;;;;;6.63;3.63;;;10.30;1.00;;;;;;5056845;28;20687;-59
2023/02/20 08:07:07;;;;;;;5.17;4.67;;;10.30;1.00;;;;;;5062487;28;20183;-57
2023/02/20 08:09:33;;;;;;;4.50;3.73;;;10.30;1.00;;;;;;5060146;28;20238;-57
2023/02/20 08:11:59;;;;;;;6.53;3.13;;;10.40;1.00;;;;;;5053204;28;20774;-56
2023/02/20 08:14:27;;;;;;;4.23;3.70;;;10.30;1.00;;;;;;5058165;28;20279;-58
2023/02/20 08:16:53;;;;;;;4.37;3.73;;;10.20;1.00;;;;;;5053197;28;20534;-56
2023/02/20 08:19:18;;;;;;;4.30;3.23;;;10.20;1.00;;;;;;5062249;28;20518;-57
2023/02/20 08:21:44;;;;;;;3.83;3.40;;;10.20;1.00;;;;;;5060246;28;20176;-57
2023/02/20 08:24:09;;;;;;;4.90;4.30;;;10.30;1.00;;;;;;5060794;28;21982;-56
2023/02/20 08:26:43;;;;;;;4.80;4.13;;;10.60;1.00;;;;;;5055948;28;20191;-57
2023/02/20 08:29:08;;;;;;;3.67;3.30;;;10.60;1.00;;;;;;5059089;28;20179;-57
2023/02/20 08:31:34;;;;;;;6.77;4.10;;;10.50;1.00;;;;;;5054459;28;20463;-57
2023/02/20 08:34:00;;;;;;;5.13;3.93;;;10.60;1.00;;;;;;5067071;28;20217;-58
2023/02/20 08:36:25;;;;;;;4.40;4.00;;;10.70;1.00;;;;;;5057285;28;20751;-58
2023/02/20 08:38:51;;;;;;;6.00;4.03;;;10.70;1.00;;;;;;5061091;28;20746;-56
2023/02/20 08:41:17;;;;;;;5.77;3.80;;;10.90;1.00;;;;;;5055426;28;20234;-57
2023/02/20 08:43:43;;;;;;;5.20;4.37;;;11.10;1.00;;;;;;5063312;28;20280;-57
2023/02/20 08:46:09;;;;;;;6.30;4.83;;;11.10;1.00;;;;;;5059185;28;20651;-59
2023/02/20 08:48:36;;;;;;;6.60;4.10;;;11.20;1.00;;;;;;5069260;28;20434;-57
2023/02/20 08:51:02;;;;;;;5.33;4.27;;;11.50;1.00;;;;;;5055059;28;20898;-58
2023/02/20 08:53:27;;;;;;;4.13;3.73;;;11.50;1.00;;;;;;5063639;28;20438;-57
2023/02/20 08:55:53;;;;;;;4.50;4.10;;;11.50;1.00;;;;;;5060332;28;20661;-57
2023/02/20 08:58:23;;;;;;;4.33;3.90;;;11.50;1.00;;;;;;5060305;28;20266;-56
2023/02/20 09:00:50;;;;;;;5.10;4.43;;;11.50;1.00;;;;;;5059024;28;20195;-58
2023/02/20 09:03:15;;;;;;;4.73;3.77;;;11.60;1.00;;;;;;5057120;28;20423;-57
2023/02/20 09:05:42;;;;;;;3.77;3.37;;;11.70;1.00;;;;;;5066025;28;20448;-57
2023/02/20 09:08:07;;;;;;;4.50;3.43;;;11.70;1.00;;;;;;5054773;28;20204;-57
2023/02/20 09:10:33;;;;;;;4.90;3.80;;;11.60;1.00;;;;;;5053038;28;21020;-58
2023/02/20 09:12:59;;;;;;;4.27;3.37;;;11.60;1.00;;;;;;5069242;28;21880;-59
2023/02/20 09:15:25;;;;;;;4.33;3.47;;;11.70;1.00;;;;;;5057628;28;20202;-56
2023/02/20 09:17:51;;;;;;;4.70;2.80;;;11.90;1.00;;;;;;5064182;28;20495;-56
2023/02/20 09:20:19;;;;;;;4.77;3.60;;;11.90;1.00;;;;;;5056655;28;20199;-56
2023/02/20 09:22:46;;;;;;;3.33;2.87;;;11.90;1.00;;;;;;5051969;28;20687;-58
2023/02/20 09:25:14;;;;;;;3.63;3.27;;;11.90;1.00;;;;;;5059046;28;20488;-57
2023/02/20 09:27:40;;;;;;;3.20;2.90;;;11.90;1.00;;;;;;5062311;28;20505;-57
2023/02/20 09:30:06;;;;;;;4.00;3.60;;;11.80;1.00;;;;;;5062179;28;20446;-56
2023/02/20 09:32:32;;;;;;;3.10;2.80;;;11.90;1.00;;;;;;5058142;28;20446;-57
2023/02/20 09:34:58;;;;;;;3.00;2.73;;;12.00;1.00;;;;;;5044443;28;20441;-56
2023/02/20 09:37:24;;;;;;;3.97;3.40;;;12.00;1.00;;;;;;5053424;28;20211;-57
2023/02/20 09:39:50;;;;;;;2.97;2.60;;;11.90;1.00;;;;;;5056889;28;20602;-58
2023/02/20 09:42:49;;;;;;;3.37;3.00;;;11.90;1.00;;;;;;5056749;28;20507;-56
2023/02/20 09:45:22;;;;;;;4.97;3.07;;;12.00;1.00;;;;;;5059857;28;20619;-58
2023/02/20 09:48:21;;;;;;;3.00;2.70;;;12.00;1.00;;;;;;5056597;28;20425;-57
2023/02/20 09:50:53;;;;;;;3.03;2.00;;;12.00;1.00;;;;;;5046107;28;20568;-58
2023/02/20 09:53:19;;;;;;;2.93;2.53;;;11.90;1.00;;;;;;5048074;28;20474;-59
2023/02/20 09:55:47;;;;;;;3.03;2.73;;;12.20;1.00;;;;;;5037635;28;20474;-58
2023/02/20 09:58:25;;;;;;;3.00;2.30;;;12.20;1.00;;;;;;5048826;28;20554;-58
2023/02/20 10:00:51;;;;;;;2.57;1.83;;;12.50;1.00;;;;;;5065045;28;20409;-58
2023/02/20 10:03:31;;;;;;;3.90;2.37;;;12.60;1.00;;;;;;5047187;28;20429;-57
2023/02/20 10:05:58;;;;;;;2.10;1.90;;;12.60;1.00;;;;;;5050636;28;20451;-58
2023/02/20 10:08:24;;;;;;;2.93;2.10;;;12.70;1.00;;;;;;5057625;28;20545;-57
2023/02/20 10:10:53;;;;;;;2.83;2.00;;;12.70;1.00;;;;;;5049183;28;20926;-58
2023/02/20 10:13:37;;;;;;;2.90;2.23;;;12.50;1.00;;;;;;5050200;28;21043;-58
2023/02/20 10:16:24;;;;;;;1.80;1.70;;;12.40;1.00;;;;;;5047593;28;20487;-58
2023/02/20 10:19:08;;;;;;;6.40;2.37;;;12.60;1.00;;;;;;5056710;28;20438;-58
2023/02/20 10:22:10;;;;;;;2.73;1.90;;;12.60;1.00;;;;;;5054215;28;20466;-58
2023/02/20 10:24:54;;;;;;;4.70;2.30;;;12.70;1.00;;;;;;5047840;28;20454;-58
2023/02/20 10:27:38;;;;;;;3.97;2.40;;;12.70;1.00;;;;;;5046483;28;20477;-57
2023/02/20 10:30:05;;;;;;;3.40;2.30;;;12.80;1.00;;;;;;5060759;28;20430;-58
2023/02/20 10:32:34;;;;;;;2.83;1.90;;;12.90;1.00;;;;;;5050202;28;20865;-57
2023/02/20 10:35:10;;;;;;;4.47;2.50;;;12.80;1.00;;;;;;5051709;28;20516;-58
2023/02/20 10:37:57;;;;;;;2.23;2.00;;;12.70;1.00;;;;;;5069980;28;20924;-59
2023/02/20 10:40:30;;;;;;;2.37;2.13;;;12.90;1.00;;;;;;5069959;28;20495;-58
2023/02/20 10:43:31;;;;;;;3.93;2.03;;;12.80;1.00;;;;;;5051777;28;20501;-58
2023/02/20 10:46:25;;;;;;;4.97;2.07;;;12.60;1.00;;;;;;5007988;28;20418;-58
2023/02/20 10:48:55;;;;;;;2.97;2.00;;;12.40;1.00;;;;;;5049536;28;20437;-58
2023/02/20 10:51:33;;;;;;;3.30;2.33;;;12.50;1.00;;;;;;5049488;28;20421;-58
2023/02/20 10:54:07;;;;;;;2.47;1.70;;;12.40;1.00;;;;;;5046366;28;20449;-58
2023/02/20 10:56:47;;;;;;;1.60;1.40;;;12.70;1.00;;;;;;5047675;28;20474;-58
2023/02/20 10:59:22;;;;;;;3.43;1.80;;;12.60;1.00;;;;;;5048383;28;20496;-57
2023/02/20 11:01:53;;;;;;;2.43;1.60;;;12.70;1.00;;;;;;5049046;28;20409;-58
2023/02/20 11:04:22;;;;;;;2.30;1.77;;;12.90;1.00;;;;;;5049133;28;20442;-58
2023/02/20 11:07:14;;;;;;;2.10;1.90;;;13.00;1.00;;;;;;5046011;28;20463;-57
2023/02/20 11:09:40;;;;;;;2.20;1.70;;;12.90;1.00;;;;;;5047391;28;20443;-58
2023/02/20 11:12:07;;;;;;;2.03;1.83;;;12.90;1.00;;;;;;5045507;28;20456;-58
2023/02/20 11:14:45;;;;;;;5.50;1.73;;;13.00;1.00;;;;;;5044215;28;20520;-57
2023/02/20 11:17:21;;;;;;;1.77;1.67;;;13.10;1.00;;;;;;5040845;28;20456;-58
2023/02/20 11:19:48;;;;;;;1.87;1.60;;;13.10;1.00;;;;;;5047960;28;20408;-58
2023/02/20 11:22:15;;;;;;;2.70;2.00;;;13.20;1.00;;;;;;5057083;28;20447;-58
2023/02/20 11:24:42;;;;;;;2.27;1.60;;;13.30;1.00;;;;;;5052400;28;20438;-57
2023/02/20 11:27:15;;;;;;;3.07;1.77;;;13.30;1.00;;;;;;5048720;28;20420;-59
2023/02/20 11:30:00;;;;;;;2.13;1.43;;;13.30;1.00;;;;;;5052676;28;20443;-58
2023/02/20 11:32:36;;;;;;;2.30;1.63;;;13.30;1.00;;;;;;5048433;28;20744;-58
2023/02/20 11:35:16;;;;;;;1.87;1.70;;;13.40;1.00;;;;;;5050676;28;20430;-59
2023/02/20 11:37:50;;;;;;;2.33;1.70;;;13.30;1.00;;;;;;5049398;28;20432;-58
2023/02/20 11:40:31;;;;;;;6.80;1.47;;;13.30;1.00;;;;;;5047682;28;20416;-59
2023/02/20 11:43:12;;;;;;;2.90;1.93;;;13.60;1.00;;;;;;5048218;28;20466;-59
2023/02/20 11:45:38;;;;;;;3.30;1.43;;;13.70;1.00;;;;;;5061751;28;20421;-60
2023/02/20 11:48:16;;;;;;;1.93;1.73;;;13.60;1.00;;;;;;5048555;28;20996;-58
2023/02/20 11:50:48;;;;;;;3.90;1.90;;;13.50;1.00;;;;;;5049745;28;20533;-58
2023/02/20 11:53:32;;;;;;;4.40;1.50;;;13.40;1.00;;;;;;5047182;28;20482;-58
2023/02/20 11:56:17;;;;;;;3.60;1.90;;;13.50;1.00;;;;;;5053033;28;21037;-57
2023/02/20 11:58:45;;;;;;;2.63;1.60;;;13.70;1.00;;;;;;5046868;28;20443;-57
2023/02/20 12:01:33;;;;;;;1.80;1.40;;;13.80;1.00;;;;;;5047477;28;20437;-56
2023/02/20 12:03:59;;;;;;;1.33;1.23;;;13.80;1.00;;;;;;5046626;28;20453;-57
2023/02/20 12:06:41;;;;;;;1.87;1.50;;;13.70;1.00;;;;;;5043464;28;20418;-58
2023/02/20 12:09:15;;;;;;;2.43;1.30;;;13.80;1.00;;;;;;5065041;28;20405;-57
2023/02/20 12:11:41;;;;;;;1.60;1.50;;;13.80;1.00;;;;;;5055066;28;20424;-58
2023/02/20 12:14:11;;;;;;;1.27;1.10;;;13.80;1.00;;;;;;5047491;28;20427;-58
2023/02/20 12:16:43;;;;;;;1.63;1.07;;;13.80;1.00;;;;;;5049433;28;20232;-58
2023/02/20 12:19:40;;;;;;;4.23;1.20;;;13.80;1.00;;;;;;5047454;28;20423;-58
2023/02/20 12:22:14;;;;;;;1.37;1.27;;;13.90;1.00;;;;;;5051737;28;20438;-59
2023/02/20 12:25:08;;;;;;;2.10;1.23;;;14.10;1.00;;;;;;5051584;28;20433;-58
2023/02/20 12:28:01;;;;;;;2.20;1.43;;;14.20;1.00;;;;;;5053236;28;20443;-58
2023/02/20 12:30:37;;;;;;;1.77;1.30;;;14.90;1.00;;;;;;5049037;28;20425;-58
2023/02/20 12:33:06;;;;;;;2.70;1.43;;;14.50;1.00;;;;;;5049245;28;20496;-57
2023/02/20 12:35:34;;;;;;;1.33;1.13;;;14.50;1.00;;;;;;5049084;28;20453;-58
2023/02/20 12:38:16;;;;;;;1.67;1.57;;;14.30;1.00;;;;;;5049033;28;20468;-57
2023/02/20 12:40:41;;;;;;;1.47;0.90;;;14.20;1.00;;;;;;5050098;28;20421;-57
2023/02/20 12:43:26;;;;;;;3.37;1.13;;;14.20;1.00;;;;;;5050361;28;20499;-57
2023/02/20 12:45:57;;;;;;;1.43;1.00;;;14.30;1.00;;;;;;5049539;28;21856;-57
2023/02/20 12:48:45;;;;;;;3.70;1.60;;;14.20;1.00;;;;;;5047887;28;20826;-58
2023/02/20 12:51:21;;;;;;;2.87;1.73;;;14.30;1.00;;;;;;5050735;28;20420;-57
2023/02/20 12:54:02;;;;;;;1.50;1.33;;;14.50;1.00;;;;;;5049543;28;20917;-58
2023/02/20 12:56:38;;;;;;;1.60;1.10;;;14.50;1.00;;;;;;5047863;28;20518;-58
2023/02/20 12:59:31;;;;;;;2.17;1.10;;;14.20;1.00;;;;;;5054222;28;20561;-59
2023/02/20 13:02:11;;;;;;;3.63;1.33;;;14.20;1.00;;;;;;5046896;28;20453;-58
2023/02/20 13:04:51;;;;;;;4.83;0.97;;;14.30;1.00;;;;;;5050407;28;20935;-56
2023/02/20 13:07:46;;;;;;;1.67;1.20;;;14.30;1.00;;;;;;5050322;28;20458;-58
2023/02/20 13:10:19;;;;;;;1.33;1.10;;;14.30;1.00;;;;;;5047082;28;20447;-59
2023/02/20 13:12:47;;;;;;;1.53;1.10;;;14.40;1.00;;;;;;5055751;28;20425;-58
2023/02/20 13:15:31;;;;;;;1.60;1.43;;;14.50;1.00;;;;;;5049180;28;20443;-58
2023/02/20 13:18:16;;;;;;;1.73;1.37;;;14.40;1.00;;;;;;5051425;28;20827;-59
2023/02/20 13:20:49;;;;;;;1.83;1.10;;;14.40;1.00;;;;;;5051617;28;20417;-57
2023/02/20 13:23:35;;;;;;;4.07;1.60;;;14.40;1.00;;;;;;5051542;28;20420;-58
2023/02/20 13:26:22;;;;;;;2.30;1.00;;;14.40;1.00;;;;;;5050032;28;20482;-59
2023/02/20 13:28:48;;;;;;;1.87;1.20;;;14.20;1.00;;;;;;5048379;28;20495;-58
2023/02/20 13:31:45;;;;;;;3.63;1.63;;;14.30;1.00;;;;;;5050755;28;20439;-58
2023/02/20 13:34:12;;;;;;;1.43;1.10;;;14.40;1.00;;;;;;5027691;28;20556;-59
2023/02/20 13:36:43;;;;;;;1.43;0.90;;;14.60;1.00;;;;;;5054637;28;20478;-58
2023/02/20 13:39:18;;;;;;;1.80;0.80;;;14.60;1.00;;;;;;5064554;28;20449;-58